EYPA/PLQ METAR and TAF weather

Enter ICAO airport designator
Station Type Date Time Source
EYPA METAR 2020/07/02 21:50 UTC NOAA

EYPA 022150Z AUTO 23004KT 200V280 9999 NCD 16/15 Q1010


Station Type Date Time Source
EYPA Decoded METAR 2020/07/02 21:50 UTC NOAA

Palanga Intl., Lithuania (EYPA) 55-55-12N 021-03E
Jul 02, 2020 - 05:50 PM EDT / 2020.07.02 2150 UTC
Wind: from the SW (230 degrees) at 5 MPH (4 KT) (direction variable):0
Visibility: greater than 7 mile(s):0
Temperature: 60 F (16 C)
Dew Point: 59 F (15 C)
Relative Humidity: 93%
Pressure (altimeter): 29.83 in. Hg (1010 hPa)
ob: EYPA 022150Z AUTO 23004KT 200V280 9999 NCD 16/15 Q1010
cycle: 22

Station Type Date Time Source
EYPA TAF 2020/07/02 18:03 UTC NOAA

TAF EYPA 021700Z 0218/0318 VRB05KT 7000 NSC
TEMPO 0218/0224 SCT005
TEMPO 0300/0305 3000 BR BKN005
BECMG 0305/0306 SCT015
TEMPO 0309/0316 SHRA BKN005 BKN012CB

Example: see airport list